Terminal Aerodrome Forecast
Issued by NWS Louisville, KY

Home | Current Version | Previous Version | Text Only | Print | Product List | Glossary On
Versions: 1 2 3 4 5 6 7 8 9 10 11 12 13 14 15 16 17 18 19 20 21 22 23
000
FTUS43 KLMK 192123 AAA
TAFSDF
TAF AMD
KSDF 192123Z 1921/2024 11006KT P6SM OVC015
     FM192200 11009KT P6SM -SHRA OVC015
     FM200000 11006KT 2SM -RA BR OVC008
     FM200200 13004KT 2SM RA BR OVC004
     FM200700 20006KT 5SM SHRA BR OVC007
     FM201600 20005KT 6SM BR OVC014=

USA.gov is the U.S. government's official web portal to all federal, state and local government web resources and services.